Terminal Aerodrome Forecast
Issued by NWS

Home | Current Version | Previous Version | Graphics & Text | Print | Product List | Glossary On
Versions: 1 2 3 4 5 6 7 8 9 10 11 12 13 14 15
056
FTUS43 KBIS 141926 AAA
TAFMOT
TAF AMD
KMOT 141926Z 1419/1518 31018G24KT P6SM -SHSN SCT018 BKN025
      TEMPO 1420/1422 SCT025
     FM142200 32017G22KT P6SM SCT025
     FM150000 32013G18KT P6SM SKC
     FM150800 31011KT P6SM SKC=

USA.gov is the U.S. government's official web portal to all federal, state and local government web resources and services.